Time;durP1;ratioP1;P1;durP2;ratioP2;P2;SDS_P1;SDS_P2;PMS_P1;PMS_P2;Temp;Humidity;BMP_temperature;BMP_pressure;BME280_temperature;BME280_humidity;BME280_pressure;Samples;Min_cycle;Max_cycle;Signal;HPM_P1;HPM_P2
2021/08/03 00:01:08;;;;;;;2.25;1.02;;;15.50;99.90;;;;;;5095693;28;20478;-89
2021/08/03 00:03:44;;;;;;;5.13;1.13;;;15.50;99.90;;;;;;5096373;28;20423;-89
2021/08/03 00:06:20;;;;;;;1.90;1.10;;;15.60;99.90;;;;;;5096374;28;20396;-87
2021/08/03 00:08:56;;;;;;;10.98;1.80;;;15.80;99.90;;;;;;5094948;28;20894;-88
2021/08/03 00:11:25;;;;;;;2.50;1.27;;;16.00;99.90;;;;;;5094518;28;20486;-89
2021/08/03 00:13:53;;;;;;;2.13;1.00;;;16.00;99.90;;;;;;5097123;28;20417;-88
2021/08/03 00:16:21;;;;;;;1.25;0.70;;;16.00;99.90;;;;;;5099008;28;20403;-89
2021/08/03 00:18:48;;;;;;;1.85;0.60;;;15.90;99.90;;;;;;5099731;28;20402;-89
2021/08/03 00:21:15;;;;;;;0.80;0.40;;;15.80;99.90;;;;;;5094667;28;20392;-89
2021/08/03 00:23:46;;;;;;;7.45;1.02;;;15.80;99.90;;;;;;5101411;28;20862;-89
2021/08/03 00:26:16;;;;;;;2.45;0.60;;;15.80;99.90;;;;;;5089093;28;20467;-89
2021/08/03 00:28:49;;;;;;;10.18;0.77;;;15.80;99.90;;;;;;5089286;28;20415;-89
2021/08/03 00:31:26;;;;;;;2.80;0.82;;;15.90;99.90;;;;;;5096853;28;20396;-89
2021/08/03 00:33:56;;;;;;;3.97;0.65;;;15.80;99.90;;;;;;5096070;28;20395;-88
2021/08/03 00:36:29;;;;;;;2.37;0.40;;;15.90;99.90;;;;;;5098679;28;20395;-89
2021/08/03 00:38:56;;;;;;;32.25;2.10;;;16.00;99.90;;;;;;5079207;28;20396;-87
2021/08/03 00:41:31;;;;;;;5.83;0.63;;;16.00;99.90;;;;;;5097615;28;20892;-85
2021/08/03 00:43:58;;;;;;;0.73;0.30;;;16.10;99.90;;;;;;5094224;28;20427;-89
2021/08/03 00:46:26;;;;;;;3.40;0.40;;;16.10;99.90;;;;;;5080614;28;20390;-87
2021/08/03 00:48:53;;;;;;;1.90;0.30;;;16.20;99.90;;;;;;5059517;28;20406;-87
2021/08/03 00:51:23;;;;;;;1.20;0.40;;;16.20;99.90;;;;;;5077026;28;20420;-88
2021/08/03 00:53:51;;;;;;;1.05;0.43;;;16.20;99.90;;;;;;5077681;28;20430;-89
2021/08/03 00:56:18;;;;;;;2.03;0.50;;;16.30;99.90;;;;;;5075881;28;20477;-87
2021/08/03 00:58:45;;;;;;;1.27;0.30;;;16.40;99.90;;;;;;5057866;28;20375;-86
2021/08/03 01:01:12;;;;;;;0.93;0.40;;;16.50;99.90;;;;;;5073849;28;20409;-88
2021/08/03 01:03:39;;;;;;;1.00;0.30;;;16.60;99.90;;;;;;5073363;28;20401;-90
2021/08/03 01:06:09;;;;;;;2.13;0.30;;;16.60;99.90;;;;;;5057316;28;20405;-88
2021/08/03 01:08:52;;;;;;;3.10;0.50;;;16.60;99.90;;;;;;5069910;28;20401;-90
2021/08/03 01:11:29;;;;;;;2.00;0.40;;;16.60;99.90;;;;;;5066214;28;20422;-90
2021/08/03 01:14:15;;;;;;;0.73;0.20;;;16.50;99.90;;;;;;5063206;28;20468;-88
2021/08/03 01:16:45;;;;;;;0.60;0.40;;;16.60;99.90;;;;;;5071228;28;20402;-89
2021/08/03 01:19:19;;;;;;;0.60;0.30;;;16.70;99.90;;;;;;5054305;28;20376;-88
2021/08/03 01:21:52;;;;;;;1.50;0.30;;;16.70;99.90;;;;;;5061367;28;20469;-89
2021/08/03 01:24:51;;;;;;;1.70;0.50;;;16.80;99.90;;;;;;5063577;28;20413;-88
2021/08/03 01:27:55;;;;;;;0.85;0.20;;;16.70;99.90;;;;;;5062881;28;20432;-88
2021/08/03 01:30:24;;;;;;;10.80;0.60;;;16.70;99.90;;;;;;5076479;28;20398;-89
2021/08/03 01:32:55;;;;;;;2.70;0.40;;;16.60;99.90;;;;;;5078614;28;20374;-90
2021/08/03 01:35:23;;;;;;;3.50;0.50;;;16.70;99.90;;;;;;5094415;28;20522;-90
2021/08/03 01:37:52;;;;;;;1.33;0.50;;;16.80;99.90;;;;;;5079921;28;20390;-89
2021/08/03 01:40:19;;;;;;;0.87;0.43;;;16.80;99.90;;;;;;5063831;28;20409;-89
2021/08/03 01:42:47;;;;;;;3.38;0.30;;;16.90;99.90;;;;;;5076592;28;20935;-89
2021/08/03 01:45:16;;;;;;;1.23;0.30;;;16.90;99.40;;;;;;5074251;28;20412;-88
2021/08/03 01:47:43;;;;;;;2.10;0.32;;;17.00;99.90;;;;;;5073799;28;20437;-89
2021/08/03 01:50:13;;;;;;;0.33;0.20;;;17.10;97.90;;;;;;5078912;28;20401;-90
2021/08/03 01:52:42;;;;;;;2.45;0.40;;;17.00;97.40;;;;;;5075802;28;20390;-90
2021/08/03 01:55:10;;;;;;;4.82;0.45;;;17.00;97.40;;;;;;5072076;28;20390;-89
2021/08/03 01:57:42;;;;;;;3.58;0.35;;;17.10;96.50;;;;;;5072332;28;20393;-89
2021/08/03 02:00:10;;;;;;;0.95;0.30;;;17.10;96.90;;;;;;5065812;28;20398;-90
2021/08/03 02:02:38;;;;;;;2.60;0.40;;;17.10;95.20;;;;;;5061262;28;20415;-89
2021/08/03 02:05:06;;;;;;;1.67;0.22;;;17.20;94.30;;;;;;5076852;28;20408;-88
2021/08/03 02:07:35;;;;;;;1.33;0.30;;;17.30;94.80;;;;;;5075476;28;20385;-89
2021/08/03 02:10:04;;;;;;;2.90;0.40;;;17.40;93.50;;;;;;5077847;28;20402;-89
2021/08/03 02:12:33;;;;;;;0.88;0.35;;;17.40;93.50;;;;;;5082556;28;20638;-91
2021/08/03 02:15:00;;;;;;;2.35;0.25;;;17.30;93.90;;;;;;5082490;28;20444;-88
2021/08/03 02:17:31;;;;;;;0.60;0.10;;;17.40;94.20;;;;;;5079869;28;20437;-87
2021/08/03 02:20:00;;;;;;;0.40;0.28;;;17.50;92.60;;;;;;5080958;28;20390;-89
2021/08/03 02:22:30;;;;;;;1.98;0.40;;;17.60;93.70;;;;;;5059423;28;20382;-86
2021/08/03 02:24:57;;;;;;;1.52;0.63;;;17.70;93.70;;;;;;5076600;28;20462;-89
2021/08/03 02:27:43;;;;;;;1.33;0.30;;;17.80;92.20;;;;;;5056551;28;20401;-90
2021/08/03 02:30:17;;;;;;;1.95;0.47;;;18.00;91.60;;;;;;5076051;28;20788;-86
2021/08/03 02:33:08;;;;;;;0.60;0.40;;;17.90;89.40;;;;;;5083064;28;20463;-89
2021/08/03 02:35:47;;;;;;;1.70;0.20;;;17.90;89.40;;;;;;5078871;28;20408;-87
2021/08/03 02:38:22;;;;;;;6.80;0.30;;;17.90;84.60;;;;;;5060240;28;20382;-87
2021/08/03 02:40:55;;;;;;;1.55;0.22;;;17.90;86.70;;;;;;5060243;28;20410;-87
2021/08/03 02:43:26;;;;;;;1.70;0.50;;;18.00;89.00;;;;;;5074432;28;20414;-88
2021/08/03 02:46:00;;;;;;;2.00;0.20;;;18.00;88.60;;;;;;5058528;28;20404;-87
2021/08/03 02:48:28;;;;;;;2.20;0.20;;;18.00;90.80;;;;;;5075451;28;20387;-89
2021/08/03 02:50:56;;;;;;;0.47;0.30;;;18.10;88.80;;;;;;5063256;28;20429;-88
2021/08/03 02:53:32;;;;;;;4.43;0.30;;;18.00;90.00;;;;;;5076405;28;20485;-88
2021/08/03 02:56:23;;;;;;;4.37;0.30;;;18.00;86.80;;;;;;5073928;28;20398;-88
2021/08/03 02:59:15;;;;;;;0.90;0.20;;;17.90;89.10;;;;;;5070823;28;20397;-87
2021/08/03 03:01:44;;;;;;;0.50;0.10;;;17.80;90.20;;;;;;5064741;28;20776;-89
2021/08/03 03:04:33;;;;;;;1.20;0.10;;;17.80;90.00;;;;;;5069547;28;20481;-89
2021/08/03 03:07:07;;;;;;;2.03;0.17;;;17.80;89.20;;;;;;5068426;28;20717;-89
2021/08/03 03:09:37;;;;;;;1.13;0.20;;;17.80;85.50;;;;;;5063133;28;20382;-90
2021/08/03 03:12:11;;;;;;;0.80;0.10;;;17.80;85.50;;;;;;5056656;28;20398;-86
2021/08/03 03:14:41;;;;;;;0.80;0.17;;;17.80;86.80;;;;;;5070941;28;20389;-89
2021/08/03 03:17:10;;;;;;;3.20;0.30;;;17.90;82.70;;;;;;5069615;28;20402;-85
2021/08/03 03:19:41;;;;;;;1.08;0.20;;;17.80;82.90;;;;;;5077176;28;20435;-86
2021/08/03 03:22:09;;;;;;;2.37;0.27;;;17.80;80.40;;;;;;5067901;28;20398;-87
2021/08/03 03:24:38;;;;;;;1.40;0.10;;;17.70;78.70;;;;;;5071375;28;20423;-88
2021/08/03 03:27:08;;;;;;;0.30;0.00;;;17.70;81.30;;;;;;5068020;28;20484;-87
2021/08/03 03:29:38;;;;;;;0.50;0.10;;;17.90;79.50;;;;;;5070800;28;20779;-86
2021/08/03 03:32:05;;;;;;;0.25;0.10;;;17.80;77.90;;;;;;5061573;28;20398;-85
2021/08/03 03:34:34;;;;;;;1.05;0.10;;;17.80;78.10;;;;;;5071073;28;20884;-87
2021/08/03 03:37:01;;;;;;;0.80;0.10;;;17.80;77.80;;;;;;5073647;28;20420;-87
2021/08/03 03:39:36;;;;;;;1.00;0.10;;;17.80;76.50;;;;;;5073199;28;20749;-85
2021/08/03 03:42:05;;;;;;;0.40;0.00;;;17.70;79.10;;;;;;5073866;28;20927;-88
2021/08/03 03:44:32;;;;;;;1.10;0.15;;;17.80;76.60;;;;;;5072687;28;20407;-86
2021/08/03 03:47:08;;;;;;;0.80;0.17;;;17.70;77.50;;;;;;5073568;28;20404;-88
2021/08/03 03:49:47;;;;;;;1.70;0.30;;;17.80;78.20;;;;;;5054608;28;21780;-88
2021/08/03 03:52:22;;;;;;;0.85;0.10;;;17.70;76.20;;;;;;5090716;28;20865;-87
2021/08/03 03:54:53;;;;;;;0.50;0.10;;;17.70;76.50;;;;;;5090794;28;20823;-88
2021/08/03 03:57:22;;;;;;;0.30;0.10;;;17.70;77.00;;;;;;5094218;28;20399;-89
2021/08/03 03:59:54;;;;;;;0.50;0.10;;;17.80;75.20;;;;;;5092869;28;20389;-88
2021/08/03 04:02:23;;;;;;;0.77;0.10;;;17.80;73.00;;;;;;5093311;28;20512;-89
2021/08/03 04:04:51;;;;;;;0.50;0.10;;;17.70;71.60;;;;;;5075616;28;20476;-87
2021/08/03 04:07:21;;;;;;;0.20;0.10;;;17.70;73.30;;;;;;5075749;28;20445;-88
2021/08/03 04:09:48;;;;;;;4.30;0.40;;;17.70;72.70;;;;;;5059808;28;20442;-87
2021/08/03 04:12:20;;;;;;;0.28;0.10;;;17.60;74.10;;;;;;5075991;28;20384;-87
2021/08/03 04:14:49;;;;;;;2.38;0.10;;;17.60;74.80;;;;;;5094673;28;20464;-87
2021/08/03 04:17:21;;;;;;;0.93;0.10;;;17.70;75.40;;;;;;5072440;28;20403;-87
2021/08/03 04:19:48;;;;;;;1.90;0.10;;;17.70;72.00;;;;;;5090449;28;20388;-85
2021/08/03 04:22:17;;;;;;;1.80;0.15;;;17.60;72.30;;;;;;5058049;28;20795;-86
2021/08/03 04:24:48;;;;;;;0.40;0.10;;;17.50;72.60;;;;;;5076453;28;20392;-86
2021/08/03 04:27:19;;;;;;;2.38;0.10;;;17.40;73.20;;;;;;5092366;28;20380;-86
2021/08/03 04:29:46;;;;;;;0.60;0.10;;;17.40;73.50;;;;;;5059515;28;20409;-89
2021/08/03 04:32:13;;;;;;;0.30;0.10;;;17.40;73.90;;;;;;5060349;28;20684;-84
2021/08/03 04:34:40;;;;;;;0.90;0.10;;;17.30;70.70;;;;;;5063543;28;20407;-87
2021/08/03 04:37:08;;;;;;;0.70;0.03;;;17.20;71.70;;;;;;5108775;28;20736;-86
2021/08/03 04:39:37;;;;;;;0.20;0.00;;;17.20;71.70;;;;;;5070148;28;20433;-87
2021/08/03 04:42:06;;;;;;;2.22;0.10;;;17.10;72.90;;;;;;5088674;28;20396;-87
2021/08/03 04:44:33;;;;;;;0.30;0.10;;;17.10;72.50;;;;;;5055083;28;20506;-85
2021/08/03 04:47:01;;;;;;;0.10;0.10;;;17.00;72.90;;;;;;5078376;28;20388;-86
2021/08/03 04:49:28;;;;;;;0.30;0.10;;;16.90;71.60;;;;;;5076886;28;20429;-85
2021/08/03 04:51:55;;;;;;;0.70;0.10;;;16.80;70.50;;;;;;5075603;28;20403;-86
2021/08/03 04:54:22;;;;;;;1.30;0.10;;;16.80;71.30;;;;;;5075937;28;20545;-85
2021/08/03 04:56:49;;;;;;;0.22;0.05;;;16.80;71.70;;;;;;5075184;28;20396;-86
2021/08/03 04:59:16;;;;;;;30.48;1.67;;;16.70;72.70;;;;;;5064485;28;20427;-84
2021/08/03 05:01:44;;;;;;;1.30;0.10;;;16.60;71.70;;;;;;5102229;28;20443;-87
2021/08/03 05:04:11;;;;;;;1.45;0.17;;;16.50;72.40;;;;;;5092759;28;20412;-85
2021/08/03 05:06:38;;;;;;;2.15;0.10;;;16.40;71.80;;;;;;5091939;28;20392;-86
2021/08/03 05:09:06;;;;;;;1.80;0.10;;;16.40;72.80;;;;;;5091591;28;20396;-86
2021/08/03 05:11:33;;;;;;;0.15;0.00;;;16.40;73.90;;;;;;5092350;28;20375;-85
2021/08/03 05:14:00;;;;;;;1.80;0.10;;;16.30;71.80;;;;;;5091671;28;20431;-85
2021/08/03 05:16:29;;;;;;;5.55;0.50;;;16.30;71.80;;;;;;5054993;28;20461;-85
2021/08/03 05:18:56;;;;;;;1.20;0.10;;;16.20;70.70;;;;;;5091598;28;20381;-86
2021/08/03 05:21:23;;;;;;;2.97;0.10;;;16.10;71.40;;;;;;5071583;28;20537;-86
2021/08/03 05:23:53;;;;;;;0.30;0.10;;;16.00;72.10;;;;;;5089693;28;21193;-86
2021/08/03 05:26:20;;;;;;;0.38;0.10;;;16.00;70.70;;;;;;5089960;28;20755;-84
2021/08/03 05:28:52;;;;;;;2.08;0.10;;;15.90;72.20;;;;;;5086225;28;20951;-84
2021/08/03 05:31:27;;;;;;;0.43;0.00;;;15.90;71.50;;;;;;5068604;28;20396;-86
2021/08/03 05:33:54;;;;;;;0.00;0.00;;;15.80;72.50;;;;;;5091721;28;20387;-88
2021/08/03 05:36:23;;;;;;;0.40;0.10;;;15.80;72.30;;;;;;5093014;28;20490;-85
2021/08/03 05:38:50;;;;;;;0.38;0.10;;;15.70;72.20;;;;;;5072039;28;20752;-86
2021/08/03 05:41:18;;;;;;;0.55;0.10;;;15.70;70.10;;;;;;5071489;28;20438;-87
2021/08/03 05:43:45;;;;;;;0.63;0.10;;;15.60;70.50;;;;;;5072780;28;20452;-86
2021/08/03 05:46:13;;;;;;;2.22;0.10;;;15.60;71.80;;;;;;5089489;28;20387;-85
2021/08/03 05:48:40;;;;;;;0.50;0.10;;;15.50;72.30;;;;;;5073430;28;20396;-85
2021/08/03 05:51:07;;;;;;;0.10;0.00;;;15.50;72.20;;;;;;5072373;28;21141;-86
2021/08/03 05:53:35;;;;;;;4.30;0.10;;;15.50;71.90;;;;;;5075833;28;20400;-85
2021/08/03 05:56:02;;;;;;;1.02;0.20;;;15.40;72.50;;;;;;5101230;28;20883;-85
2021/08/03 05:58:29;;;;;;;0.10;0.03;;;15.30;72.20;;;;;;5090562;28;20433;-85
2021/08/03 06:00:56;;;;;;;0.40;0.10;;;15.20;72.60;;;;;;5072026;28;20862;-85
2021/08/03 06:03:23;;;;;;;0.40;0.03;;;15.10;73.30;;;;;;5073491;28;20408;-86
2021/08/03 06:05:51;;;;;;;0.17;0.10;;;15.10;72.20;;;;;;5085117;28;20392;-85
2021/08/03 06:08:25;;;;;;;0.30;0.13;;;15.10;72.60;;;;;;5091595;28;20877;-86
2021/08/03 06:10:53;;;;;;;0.10;0.00;;;15.00;73.60;;;;;;5076560;28;20400;-84
2021/08/03 06:13:29;;;;;;;0.70;0.17;;;14.90;76.00;;;;;;5072107;28;20400;-84
2021/08/03 06:16:02;;;;;;;3.40;0.32;;;14.90;74.90;;;;;;5064528;28;20390;-85
2021/08/03 06:18:40;;;;;;;0.10;0.00;;;14.90;73.40;;;;;;5075400;28;20400;-83
2021/08/03 06:21:10;;;;;;;21.27;19.15;;;14.80;73.00;;;;;;5072158;28;20377;-86
2021/08/03 06:23:38;;;;;;;25.60;1.95;;;14.80;74.30;;;;;;5074570;28;20408;-86
2021/08/03 06:26:05;;;;;;;22.15;2.03;;;14.60;75.10;;;;;;5074585;28;20423;-85
2021/08/03 06:28:33;;;;;;;1.58;0.30;;;14.60;75.50;;;;;;5094425;28;20380;-84
2021/08/03 06:31:01;;;;;;;0.70;0.10;;;14.60;77.30;;;;;;5076912;28;20372;-82
2021/08/03 06:33:28;;;;;;;8.45;0.30;;;14.50;76.00;;;;;;5074694;28;20400;-84
2021/08/03 06:35:55;;;;;;;1.20;0.10;;;14.50;76.80;;;;;;5084444;28;20447;-84
2021/08/03 06:38:23;;;;;;;9.50;0.55;;;14.40;77.40;;;;;;5079044;28;20803;-84
2021/08/03 06:41:08;;;;;;;2.30;0.20;;;14.40;77.60;;;;;;5073012;28;20743;-84
2021/08/03 06:43:38;;;;;;;9.13;0.28;;;14.40;77.60;;;;;;5070522;28;20414;-85
2021/08/03 06:46:08;;;;;;;3.40;0.10;;;14.30;77.60;;;;;;5084919;28;20382;-86
2021/08/03 06:48:51;;;;;;;16.85;1.10;;;14.30;77.30;;;;;;5050400;28;20917;-83
2021/08/03 06:51:22;;;;;;;302.55;19.17;;;14.20;77.10;;;;;;5066840;28;20385;-83
2021/08/03 06:53:50;;;;;;;7.68;0.50;;;14.10;77.10;;;;;;5073159;28;20823;-83
2021/08/03 06:56:22;;;;;;;6.78;1.63;;;14.10;77.20;;;;;;5050908;28;20401;-84
2021/08/03 06:59:03;;;;;;;2.65;0.30;;;14.10;78.40;;;;;;5050721;28;21162;-84
2021/08/03 07:01:53;;;;;;;25.58;1.50;;;13.90;78.60;;;;;;5068595;28;20402;-84
2021/08/03 07:04:30;;;;;;;16.33;0.98;;;13.80;80.10;;;;;;5057381;28;20413;-82
2021/08/03 07:07:00;;;;;;;4.88;0.30;;;13.80;79.00;;;;;;5050503;28;20396;-82
2021/08/03 07:09:28;;;;;;;2.70;0.90;;;13.80;79.10;;;;;;5051678;28;20398;-82
2021/08/03 07:11:57;;;;;;;2.40;0.13;;;13.70;80.20;;;;;;5050229;28;20394;-80
2021/08/03 07:14:25;;;;;;;0.30;0.23;;;13.60;79.80;;;;;;5050477;28;20521;-82
2021/08/03 07:16:56;;;;;;;12.18;0.50;;;13.60;79.60;;;;;;5046513;28;20453;-80
2021/08/03 07:19:24;;;;;;;2.97;0.73;;;13.50;79.60;;;;;;5047254;28;20422;-82
2021/08/03 07:21:53;;;;;;;54.55;3.03;;;13.40;80.00;;;;;;5054433;28;20455;-83
2021/08/03 07:24:20;;;;;;;7.75;1.60;;;13.30;80.50;;;;;;5072188;28;20443;-83
2021/08/03 07:26:47;;;;;;;65.00;3.13;;;13.20;81.20;;;;;;5051274;28;20401;-84
2021/08/03 07:29:15;;;;;;;3.85;0.28;;;13.20;81.60;;;;;;5050472;28;20752;-83
2021/08/03 07:31:42;;;;;;;20.02;0.98;;;13.10;80.60;;;;;;5047105;28;20407;-83
2021/08/03 07:34:10;;;;;;;4.07;0.47;;;13.10;80.70;;;;;;5039358;28;20382;-84
2021/08/03 07:36:38;;;;;;;0.65;0.30;;;13.00;81.40;;;;;;5070286;28;20381;-87
2021/08/03 07:39:09;;;;;;;0.60;0.20;;;12.90;81.20;;;;;;5074093;28;20832;-84
2021/08/03 07:41:39;;;;;;;0.70;0.20;;;12.90;82.00;;;;;;5032958;28;20398;-83
2021/08/03 07:44:08;;;;;;;0.32;0.10;;;12.80;82.10;;;;;;5064010;28;20420;-83
2021/08/03 07:46:38;;;;;;;0.75;0.30;;;12.70;83.60;;;;;;5049000;28;20494;-82
2021/08/03 07:49:07;;;;;;;0.40;0.20;;;12.70;83.70;;;;;;5066900;28;20443;-84
2021/08/03 07:51:34;;;;;;;1.23;0.20;;;12.70;84.70;;;;;;5051578;28;20388;-81
2021/08/03 07:54:03;;;;;;;0.40;0.20;;;12.60;84.20;;;;;;5050332;28;20462;-83
2021/08/03 07:56:45;;;;;;;0.17;0.17;;;12.50;85.40;;;;;;5050444;28;20400;-81
2021/08/03 07:59:12;;;;;;;0.70;0.13;;;12.50;85.60;;;;;;5069771;28;20374;-82
2021/08/03 08:01:39;;;;;;;0.40;0.20;;;12.50;86.00;;;;;;5078463;28;20398;-83
2021/08/03 08:04:06;;;;;;;2.20;0.10;;;12.50;84.70;;;;;;5050048;28;20845;-81
2021/08/03 08:06:33;;;;;;;0.88;0.20;;;12.50;84.70;;;;;;5069705;28;20391;-83
2021/08/03 08:09:01;;;;;;;1.52;0.22;;;12.50;83.80;;;;;;5059726;28;20410;-83
2021/08/03 08:11:28;;;;;;;0.30;0.20;;;12.40;83.30;;;;;;5076784;28;20411;-81
2021/08/03 08:14:00;;;;;;;1.00;0.10;;;12.40;83.90;;;;;;5067097;28;20430;-81
2021/08/03 08:16:27;;;;;;;1.27;0.10;;;12.40;83.90;;;;;;5072769;28;20441;-82
2021/08/03 08:18:54;;;;;;;1.85;0.30;;;12.30;83.70;;;;;;5054279;28;20451;-82
2021/08/03 08:21:20;;;;;;;0.30;0.20;;;12.30;84.10;;;;;;5073020;28;20389;-82
2021/08/03 08:23:47;;;;;;;1.17;0.10;;;12.20;84.20;;;;;;5069743;28;20459;-81
2021/08/03 08:26:14;;;;;;;0.20;0.10;;;12.20;83.80;;;;;;5035352;28;20858;-82
2021/08/03 08:28:41;;;;;;;0.20;0.15;;;12.20;83.50;;;;;;5036293;28;20414;-82
2021/08/03 08:31:08;;;;;;;0.20;0.20;;;12.20;83.90;;;;;;5035414;28;20390;-81
2021/08/03 08:33:35;;;;;;;0.22;0.10;;;12.10;84.00;;;;;;5049040;28;20867;-81
2021/08/03 08:36:02;;;;;;;0.55;0.20;;;12.10;84.70;;;;;;5071947;28;20845;-81
2021/08/03 08:38:31;;;;;;;0.63;0.28;;;12.00;84.80;;;;;;5054008;28;20788;-83
2021/08/03 08:40:58;;;;;;;0.65;0.47;;;11.90;85.90;;;;;;5055159;28;20390;-83
2021/08/03 08:43:27;;;;;;;0.30;0.30;;;11.80;87.30;;;;;;5069712;28;20394;-83
2021/08/03 08:45:55;;;;;;;0.87;0.70;;;11.80;87.20;;;;;;5054670;28;20486;-83
2021/08/03 08:48:23;;;;;;;0.50;0.50;;;11.70;87.10;;;;;;5074366;28;20396;-82
2021/08/03 08:50:55;;;;;;;1.20;0.40;;;11.60;88.80;;;;;;5092909;28;20403;-82
2021/08/03 08:53:27;;;;;;;0.30;0.30;;;11.50;89.20;;;;;;5075966;28;20388;-83
2021/08/03 08:55:54;;;;;;;0.45;0.40;;;11.40;89.80;;;;;;5076789;28;20396;-83
2021/08/03 08:58:21;;;;;;;0.32;0.20;;;11.40;90.30;;;;;;5095417;28;20388;-83
2021/08/03 09:00:48;;;;;;;0.40;0.38;;;11.40;90.40;;;;;;5103911;28;20479;-82
2021/08/03 09:03:15;;;;;;;0.70;0.40;;;11.40;89.60;;;;;;5089335;28;20407;-82
2021/08/03 09:05:43;;;;;;;1.73;0.43;;;11.30;90.40;;;;;;5071169;28;20380;-81
2021/08/03 09:08:11;;;;;;;0.85;0.40;;;11.30;90.60;;;;;;5093472;28;20449;-85
2021/08/03 09:10:48;;;;;;;0.90;0.40;;;11.20;90.60;;;;;;5092320;28;20396;-86
2021/08/03 09:13:20;;;;;;;1.03;0.40;;;11.20;90.80;;;;;;5099554;28;20384;-83
2021/08/03 09:16:04;;;;;;;0.80;0.40;;;11.20;91.00;;;;;;5073151;28;20403;-83
2021/08/03 09:18:44;;;;;;;1.02;0.50;;;11.10;91.20;;;;;;5073983;28;20404;-84
2021/08/03 09:21:20;;;;;;;2.15;0.45;;;11.20;91.30;;;;;;5087646;28;20395;-82
2021/08/03 09:23:58;;;;;;;1.45;0.40;;;11.10;91.60;;;;;;5089306;28;20838;-83
2021/08/03 09:26:49;;;;;;;0.40;0.40;;;11.10;91.30;;;;;;5091250;28;20396;-82
2021/08/03 09:29:17;;;;;;;0.60;0.40;;;11.10;91.50;;;;;;5067760;28;20866;-83
2021/08/03 09:31:54;;;;;;;0.60;0.47;;;11.10;91.70;;;;;;5069309;28;20754;-82
2021/08/03 09:34:21;;;;;;;1.35;0.50;;;11.00;92.30;;;;;;5090283;28;20392;-82
2021/08/03 09:36:55;;;;;;;2.35;0.50;;;11.00;92.40;;;;;;5090252;28;20392;-82
2021/08/03 09:39:41;;;;;;;0.50;0.40;;;10.90;92.60;;;;;;5092679;28;20384;-82
2021/08/03 09:42:19;;;;;;;1.60;0.40;;;10.80;92.60;;;;;;5091472;28;20446;-83
2021/08/03 09:45:00;;;;;;;0.60;0.40;;;10.80;92.30;;;;;;5073520;28;20436;-82
2021/08/03 09:47:30;;;;;;;0.63;0.57;;;10.80;92.60;;;;;;5072898;28;20408;-82
2021/08/03 09:50:00;;;;;;;0.52;0.40;;;10.80;92.90;;;;;;5092952;28;21801;-82
2021/08/03 09:52:33;;;;;;;0.90;0.50;;;10.80;93.20;;;;;;5053639;28;20382;-82
2021/08/03 09:55:20;;;;;;;1.05;0.40;;;10.80;93.00;;;;;;5089424;28;20483;-81
2021/08/03 09:57:48;;;;;;;0.40;0.38;;;10.70;93.30;;;;;;5072084;28;20433;-82
2021/08/03 10:00:34;;;;;;;1.75;0.30;;;10.70;93.30;;;;;;5075960;28;20457;-83
2021/08/03 10:03:01;;;;;;;4.25;0.40;;;10.70;93.80;;;;;;5065716;28;20396;-82
2021/08/03 10:05:30;;;;;;;1.42;0.40;;;10.70;93.70;;;;;;5091309;28;20473;-81
2021/08/03 10:07:59;;;;;;;2.00;0.40;;;10.70;93.70;;;;;;5070245;28;20396;-82
2021/08/03 10:10:29;;;;;;;1.50;0.35;;;10.60;94.10;;;;;;5051929;28;20400;-82
2021/08/03 10:12:56;;;;;;;2.42;0.40;;;10.60;94.30;;;;;;5089625;28;20400;-82
2021/08/03 10:15:26;;;;;;;0.90;0.40;;;10.60;94.70;;;;;;5090213;28;20388;-82
2021/08/03 10:17:53;;;;;;;0.40;0.40;;;10.50;94.90;;;;;;5089410;28;20443;-82
2021/08/03 10:20:23;;;;;;;0.70;0.50;;;10.50;95.10;;;;;;5083259;28;20785;-83
2021/08/03 10:23:01;;;;;;;1.48;0.65;;;10.50;95.40;;;;;;5090297;28;20450;-80
2021/08/03 10:25:43;;;;;;;1.25;0.60;;;10.40;95.80;;;;;;5089697;28;20493;-80
2021/08/03 10:28:28;;;;;;;2.13;0.40;;;10.40;95.80;;;;;;5085827;28;20463;-83
2021/08/03 10:30:56;;;;;;;0.70;0.50;;;10.30;95.80;;;;;;5085617;28;20482;-82
2021/08/03 10:33:42;;;;;;;0.65;0.52;;;10.20;96.50;;;;;;5079155;28;20889;-81
2021/08/03 10:36:36;;;;;;;1.83;0.57;;;10.20;96.70;;;;;;5079976;28;20416;-81
2021/08/03 10:39:25;;;;;;;1.45;0.50;;;10.10;97.10;;;;;;5065707;28;20877;-82
2021/08/03 10:41:58;;;;;;;0.70;0.47;;;10.10;97.60;;;;;;5065947;28;20391;-82
2021/08/03 10:44:52;;;;;;;1.58;0.60;;;10.00;97.70;;;;;;5067264;28;21022;-82
2021/08/03 10:47:36;;;;;;;1.10;0.47;;;10.00;97.90;;;;;;5050157;28;20430;-84
2021/08/03 10:50:38;;;;;;;1.00;0.40;;;9.90;97.80;;;;;;5082344;28;20445;-85
2021/08/03 10:53:06;;;;;;;1.05;0.70;;;9.90;98.20;;;;;;5020015;28;20498;-84
2021/08/03 10:55:34;;;;;;;1.00;0.50;;;9.90;97.50;;;;;;5056139;28;20400;-84
2021/08/03 10:58:14;;;;;;;1.00;0.35;;;10.00;97.30;;;;;;5086938;28;20434;-83
2021/08/03 11:00:44;;;;;;;1.33;0.40;;;10.10;96.80;;;;;;5084934;28;20388;-83
2021/08/03 11:03:33;;;;;;;2.50;0.40;;;10.10;96.70;;;;;;5086615;28;20676;-82
2021/08/03 11:06:09;;;;;;;0.63;0.30;;;10.20;96.60;;;;;;5084701;28;20503;-85
2021/08/03 11:08:40;;;;;;;1.10;0.30;;;10.10;96.60;;;;;;5083538;28;20428;-83
2021/08/03 11:11:12;;;;;;;2.30;0.50;;;10.10;97.00;;;;;;5066910;28;20984;-84
2021/08/03 11:13:56;;;;;;;1.83;0.40;;;10.10;96.80;;;;;;5067639;28;20436;-84
2021/08/03 11:16:23;;;;;;;0.90;0.60;;;10.00;97.30;;;;;;5065281;28;20966;-84
2021/08/03 11:18:59;;;;;;;1.77;0.60;;;10.00;97.80;;;;;;5086488;28;20499;-81
2021/08/03 11:21:28;;;;;;;1.70;0.70;;;9.90;98.40;;;;;;5066149;28;20732;-82
2021/08/03 11:23:58;;;;;;;0.85;0.52;;;9.80;98.20;;;;;;5087110;28;20416;-81
2021/08/03 11:26:31;;;;;;;2.67;0.70;;;9.80;98.80;;;;;;5085631;28;20398;-80
2021/08/03 11:29:08;;;;;;;2.60;0.70;;;9.70;98.90;;;;;;5096927;28;20392;-81
2021/08/03 11:31:43;;;;;;;1.13;0.60;;;9.70;99.10;;;;;;5077110;28;20401;-81
2021/08/03 11:34:28;;;;;;;1.33;0.65;;;9.60;99.50;;;;;;5084114;28;20450;-80
2021/08/03 11:37:09;;;;;;;2.75;0.90;;;9.60;99.40;;;;;;5073856;28;20403;-81
2021/08/03 11:39:59;;;;;;;1.48;0.60;;;9.60;99.40;;;;;;5066984;28;20658;-80
2021/08/03 11:42:52;;;;;;;0.93;0.68;;;9.40;99.90;;;;;;5059402;28;20380;-80
2021/08/03 11:45:22;;;;;;;1.65;0.63;;;9.40;99.90;;;;;;5095041;28;20401;-80
2021/08/03 11:47:52;;;;;;;0.70;0.70;;;9.40;99.90;;;;;;5062004;28;20460;-82
2021/08/03 11:50:31;;;;;;;2.10;0.70;;;9.30;99.90;;;;;;5067686;28;20392;-82
2021/08/03 11:53:11;;;;;;;0.90;0.77;;;9.20;99.90;;;;;;5065658;28;20384;-83
2021/08/03 11:55:42;;;;;;;2.90;0.70;;;9.30;99.90;;;;;;5052587;28;20398;-83
2021/08/03 11:58:12;;;;;;;2.03;1.10;;;9.30;99.90;;;;;;5064213;28;20379;-84
2021/08/03 12:00:41;;;;;;;2.43;1.17;;;9.30;99.90;;;;;;5039139;28;20916;-83
2021/08/03 12:03:08;;;;;;;1.77;0.90;;;9.40;99.90;;;;;;5053148;28;20416;-84
2021/08/03 12:05:40;;;;;;;1.60;0.75;;;9.50;99.90;;;;;;5083856;28;20879;-83
2021/08/03 12:08:14;;;;;;;1.00;0.70;;;9.50;99.90;;;;;;5082372;28;20788;-83
2021/08/03 12:10:47;;;;;;;1.90;0.77;;;9.50;99.90;;;;;;5061693;28;20391;-83
2021/08/03 12:13:34;;;;;;;1.50;0.60;;;9.60;99.90;;;;;;5052740;28;20449;-82
2021/08/03 12:16:04;;;;;;;2.85;0.90;;;9.60;99.90;;;;;;5048859;28;20382;-82
2021/08/03 12:18:42;;;;;;;1.33;0.50;;;9.70;99.50;;;;;;5078321;28;20433;-82
2021/08/03 12:21:10;;;;;;;2.47;0.40;;;9.80;99.90;;;;;;5083367;28;20395;-83
2021/08/03 12:23:39;;;;;;;1.25;0.52;;;9.90;99.60;;;;;;5075580;28;20890;-83
2021/08/03 12:26:09;;;;;;;1.90;0.50;;;9.90;99.80;;;;;;5067486;28;20387;-82
2021/08/03 12:28:43;;;;;;;1.58;0.50;;;9.90;99.90;;;;;;5054524;28;20529;-84
2021/08/03 12:31:41;;;;;;;1.90;0.80;;;9.90;99.30;;;;;;5065852;28;20883;-83
2021/08/03 12:34:21;;;;;;;1.37;0.77;;;9.90;99.40;;;;;;5061391;28;20469;-82
2021/08/03 12:36:50;;;;;;;1.65;0.68;;;9.90;99.30;;;;;;5064259;28;20486;-82
2021/08/03 12:39:25;;;;;;;2.85;0.60;;;9.80;99.40;;;;;;5073065;28;20420;-82
2021/08/03 12:42:05;;;;;;;2.60;0.70;;;9.80;99.50;;;;;;5090368;28;20411;-83
2021/08/03 12:44:35;;;;;;;2.17;0.60;;;9.80;99.90;;;;;;5057095;28;20927;-83
2021/08/03 12:47:13;;;;;;;1.30;0.60;;;9.80;99.90;;;;;;5064386;28;20467;-83
2021/08/03 12:49:51;;;;;;;2.50;0.50;;;9.80;99.90;;;;;;5068309;28;20385;-83
2021/08/03 12:52:21;;;;;;;1.08;0.40;;;9.90;99.90;;;;;;5070548;28;20390;-83
2021/08/03 12:55:11;;;;;;;1.55;0.40;;;9.90;99.90;;;;;;5085293;28;20374;-82
2021/08/03 12:57:56;;;;;;;2.20;0.50;;;10.00;99.90;;;;;;5055067;28;20528;-83
2021/08/03 13:00:37;;;;;;;1.95;0.50;;;10.00;99.90;;;;;;5073721;28;20394;-82
2021/08/03 13:03:11;;;;;;;1.42;0.50;;;10.00;99.90;;;;;;5074061;28;20394;-81
2021/08/03 13:05:39;;;;;;;2.53;0.50;;;10.00;99.90;;;;;;5074971;28;20378;-81
2021/08/03 13:08:07;;;;;;;2.70;0.60;;;9.90;99.90;;;;;;5053864;28;20380;-82
2021/08/03 13:10:35;;;;;;;2.05;0.40;;;9.90;99.90;;;;;;5061433;28;20395;-80
2021/08/03 13:13:03;;;;;;;1.63;0.40;;;9.90;99.90;;;;;;5055158;28;20386;-82